sensor_id;sensor_type;location;lat;lon;timestamp;P1;durP1;ratioP1;P2;durP2;ratioP2
36931;SDS011;22847;42.654;23.370;2023-03-23T00:02:14;71.70;;;33.72;;
36931;SDS011;22847;42.654;23.370;2023-03-23T00:04:39;71.95;;;33.60;;
36931;SDS011;22847;42.654;23.370;2023-03-23T00:07:07;73.53;;;32.38;;
36931;SDS011;22847;42.654;23.370;2023-03-23T00:09:33;67.85;;;32.08;;
36931;SDS011;22847;42.654;23.370;2023-03-23T00:11:59;66.43;;;31.15;;
36931;SDS011;22847;42.654;23.370;2023-03-23T00:14:33;77.00;;;30.98;;
36931;SDS011;22847;42.654;23.370;2023-03-23T00:17:06;67.05;;;31.13;;
36931;SDS011;22847;42.654;23.370;2023-03-23T00:19:39;68.23;;;33.77;;
36931;SDS011;22847;42.654;23.370;2023-03-23T00:22:14;68.30;;;32.72;;
36931;SDS011;22847;42.654;23.370;2023-03-23T00:24:41;64.75;;;30.70;;
36931;SDS011;22847;42.654;23.370;2023-03-23T00:27:08;60.92;;;31.23;;
36931;SDS011;22847;42.654;23.370;2023-03-23T00:29:34;62.40;;;31.20;;
36931;SDS011;22847;42.654;23.370;2023-03-23T00:31:59;57.80;;;30.58;;
36931;SDS011;22847;42.654;23.370;2023-03-23T00:34:25;55.70;;;30.13;;
36931;SDS011;22847;42.654;23.370;2023-03-23T00:36:53;52.22;;;29.20;;
36931;SDS011;22847;42.654;23.370;2023-03-23T00:39:23;51.33;;;27.80;;
36931;SDS011;22847;42.654;23.370;2023-03-23T00:41:50;54.90;;;28.40;;
36931;SDS011;22847;42.654;23.370;2023-03-23T00:44:16;51.17;;;28.25;;
36931;SDS011;22847;42.654;23.370;2023-03-23T00:46:42;53.03;;;28.80;;
36931;SDS011;22847;42.654;23.370;2023-03-23T00:49:13;51.65;;;27.20;;
36931;SDS011;22847;42.654;23.370;2023-03-23T00:51:39;49.45;;;27.48;;
36931;SDS011;22847;42.654;23.370;2023-03-23T00:54:06;49.60;;;28.20;;
36931;SDS011;22847;42.654;23.370;2023-03-23T00:56:32;48.30;;;26.75;;
36931;SDS011;22847;42.654;23.370;2023-03-23T00:58:58;49.70;;;26.85;;
36931;SDS011;22847;42.654;23.370;2023-03-23T01:01:23;50.22;;;27.00;;
36931;SDS011;22847;42.654;23.370;2023-03-23T01:03:48;50.38;;;25.30;;
36931;SDS011;22847;42.654;23.370;2023-03-23T01:06:14;34.00;;;20.85;;
36931;SDS011;22847;42.654;23.370;2023-03-23T01:08:40;57.67;;;27.73;;
36931;SDS011;22847;42.654;23.370;2023-03-23T01:11:10;124.20;;;47.92;;
36931;SDS011;22847;42.654;23.370;2023-03-23T01:13:40;66.60;;;32.03;;
36931;SDS011;22847;42.654;23.370;2023-03-23T01:16:08;41.97;;;22.58;;
36931;SDS011;22847;42.654;23.370;2023-03-23T01:18:35;33.80;;;19.58;;
36931;SDS011;22847;42.654;23.370;2023-03-23T01:21:10;31.90;;;18.30;;
36931;SDS011;22847;42.654;23.370;2023-03-23T01:23:38;26.25;;;15.95;;
36931;SDS011;22847;42.654;23.370;2023-03-23T01:28:30;26.85;;;14.55;;
36931;SDS011;22847;42.654;23.370;2023-03-23T01:30:59;22.45;;;14.65;;
36931;SDS011;22847;42.654;23.370;2023-03-23T01:33:26;22.38;;;12.88;;
36931;SDS011;22847;42.654;23.370;2023-03-23T01:35:52;22.42;;;13.57;;
36931;SDS011;22847;42.654;23.370;2023-03-23T01:38:17;26.48;;;14.68;;
36931;SDS011;22847;42.654;23.370;2023-03-23T01:40:43;23.48;;;13.90;;
36931;SDS011;22847;42.654;23.370;2023-03-23T01:43:12;31.75;;;14.55;;
36931;SDS011;22847;42.654;23.370;2023-03-23T01:45:39;31.15;;;16.85;;
36931;SDS011;22847;42.654;23.370;2023-03-23T01:50:59;42.80;;;22.17;;
36931;SDS011;22847;42.654;23.370;2023-03-23T01:53:30;43.63;;;23.27;;
36931;SDS011;22847;42.654;23.370;2023-03-23T01:55:59;40.10;;;22.90;;
36931;SDS011;22847;42.654;23.370;2023-03-23T01:58:27;42.65;;;22.77;;
36931;SDS011;22847;42.654;23.370;2023-03-23T02:00:56;47.85;;;22.27;;
36931;SDS011;22847;42.654;23.370;2023-03-23T02:03:25;40.65;;;21.70;;
36931;SDS011;22847;42.654;23.370;2023-03-23T02:05:52;42.13;;;21.23;;
36931;SDS011;22847;42.654;23.370;2023-03-23T02:08:19;34.58;;;20.38;;
36931;SDS011;22847;42.654;23.370;2023-03-23T02:10:45;41.00;;;21.88;;
36931;SDS011;22847;42.654;23.370;2023-03-23T02:13:11;37.28;;;21.40;;
36931;SDS011;22847;42.654;23.370;2023-03-23T02:15:59;38.80;;;21.33;;
36931;SDS011;22847;42.654;23.370;2023-03-23T02:29:20;37.55;;;20.05;;
36931;SDS011;22847;42.654;23.370;2023-03-23T02:31:53;36.35;;;20.48;;
36931;SDS011;22847;42.654;23.370;2023-03-23T02:36:53;33.97;;;19.50;;
36931;SDS011;22847;42.654;23.370;2023-03-23T02:39:34;31.55;;;20.13;;
36931;SDS011;22847;42.654;23.370;2023-03-23T02:42:06;37.72;;;19.50;;
36931;SDS011;22847;42.654;23.370;2023-03-23T02:44:38;36.45;;;20.98;;
36931;SDS011;22847;42.654;23.370;2023-03-23T02:47:07;34.55;;;19.48;;
36931;SDS011;22847;42.654;23.370;2023-03-23T02:49:37;35.35;;;21.27;;
36931;SDS011;22847;42.654;23.370;2023-03-23T02:52:07;46.55;;;24.70;;
36931;SDS011;22847;42.654;23.370;2023-03-23T02:54:37;47.60;;;23.77;;
36931;SDS011;22847;42.654;23.370;2023-03-23T02:57:04;42.33;;;23.95;;
36931;SDS011;22847;42.654;23.370;2023-03-23T02:59:30;44.38;;;24.15;;
36931;SDS011;22847;42.654;23.370;2023-03-23T03:02:04;40.50;;;21.33;;
36931;SDS011;22847;42.654;23.370;2023-03-23T03:04:30;43.47;;;22.20;;
36931;SDS011;22847;42.654;23.370;2023-03-23T03:12:13;44.38;;;22.60;;
36931;SDS011;22847;42.654;23.370;2023-03-23T03:14:54;42.85;;;22.92;;
36931;SDS011;22847;42.654;23.370;2023-03-23T03:17:24;43.33;;;20.10;;
36931;SDS011;22847;42.654;23.370;2023-03-23T03:19:55;47.15;;;23.48;;
36931;SDS011;22847;42.654;23.370;2023-03-23T03:22:39;49.97;;;25.63;;
36931;SDS011;22847;42.654;23.370;2023-03-23T03:25:08;46.08;;;23.92;;
36931;SDS011;22847;42.654;23.370;2023-03-23T03:27:37;42.83;;;23.63;;
36931;SDS011;22847;42.654;23.370;2023-03-23T03:30:07;37.88;;;20.73;;
36931;SDS011;22847;42.654;23.370;2023-03-23T03:32:38;34.15;;;18.23;;
36931;SDS011;22847;42.654;23.370;2023-03-23T03:35:09;32.63;;;17.17;;
36931;SDS011;22847;42.654;23.370;2023-03-23T03:37:35;26.75;;;15.43;;
36931;SDS011;22847;42.654;23.370;2023-03-23T03:40:03;25.77;;;15.13;;
36931;SDS011;22847;42.654;23.370;2023-03-23T03:42:35;26.55;;;15.23;;
36931;SDS011;22847;42.654;23.370;2023-03-23T03:45:01;25.42;;;14.23;;
36931;SDS011;22847;42.654;23.370;2023-03-23T03:47:26;33.50;;;16.63;;
36931;SDS011;22847;42.654;23.370;2023-03-23T03:49:52;36.42;;;20.27;;
36931;SDS011;22847;42.654;23.370;2023-03-23T03:52:17;28.20;;;16.75;;
36931;SDS011;22847;42.654;23.370;2023-03-23T03:54:43;37.20;;;21.15;;
36931;SDS011;22847;42.654;23.370;2023-03-23T03:57:08;41.70;;;22.35;;
36931;SDS011;22847;42.654;23.370;2023-03-23T03:59:33;44.17;;;23.00;;
36931;SDS011;22847;42.654;23.370;2023-03-23T04:01:59;40.80;;;22.42;;
36931;SDS011;22847;42.654;23.370;2023-03-23T04:04:24;40.83;;;23.25;;
36931;SDS011;22847;42.654;23.370;2023-03-23T04:06:50;44.75;;;22.58;;
36931;SDS011;22847;42.654;23.370;2023-03-23T04:09:15;35.60;;;20.20;;
36931;SDS011;22847;42.654;23.370;2023-03-23T04:11:41;39.28;;;20.90;;
36931;SDS011;22847;42.654;23.370;2023-03-23T04:14:06;39.55;;;21.83;;
36931;SDS011;22847;42.654;23.370;2023-03-23T04:16:32;38.25;;;19.98;;
36931;SDS011;22847;42.654;23.370;2023-03-23T04:18:59;41.03;;;21.58;;
36931;SDS011;22847;42.654;23.370;2023-03-23T04:21:25;28.50;;;16.20;;
36931;SDS011;22847;42.654;23.370;2023-03-23T04:23:54;31.13;;;17.13;;
36931;SDS011;22847;42.654;23.370;2023-03-23T04:26:23;26.40;;;14.75;;
36931;SDS011;22847;42.654;23.370;2023-03-23T04:28:50;24.05;;;14.60;;
36931;SDS011;22847;42.654;23.370;2023-03-23T04:31:15;27.20;;;14.88;;
36931;SDS011;22847;42.654;23.370;2023-03-23T04:33:41;28.70;;;15.48;;
36931;SDS011;22847;42.654;23.370;2023-03-23T04:36:06;25.88;;;14.10;;
36931;SDS011;22847;42.654;23.370;2023-03-23T04:38:32;27.05;;;15.73;;
36931;SDS011;22847;42.654;23.370;2023-03-23T04:40:59;27.48;;;15.15;;
36931;SDS011;22847;42.654;23.370;2023-03-23T04:43:27;28.17;;;14.27;;
36931;SDS011;22847;42.654;23.370;2023-03-23T04:45:56;28.83;;;15.85;;
36931;SDS011;22847;42.654;23.370;2023-03-23T04:48:23;32.20;;;18.52;;
36931;SDS011;22847;42.654;23.370;2023-03-23T04:50:53;39.60;;;22.45;;
36931;SDS011;22847;42.654;23.370;2023-03-23T04:53:19;44.58;;;26.05;;
36931;SDS011;22847;42.654;23.370;2023-03-23T04:55:45;51.03;;;26.80;;
36931;SDS011;22847;42.654;23.370;2023-03-23T04:58:12;42.30;;;24.85;;
36931;SDS011;22847;42.654;23.370;2023-03-23T05:00:39;41.22;;;23.85;;
36931;SDS011;22847;42.654;23.370;2023-03-23T05:03:05;47.30;;;24.80;;
36931;SDS011;22847;42.654;23.370;2023-03-23T05:05:32;47.33;;;24.35;;
36931;SDS011;22847;42.654;23.370;2023-03-23T05:07:59;45.15;;;25.02;;
36931;SDS011;22847;42.654;23.370;2023-03-23T05:10:25;43.25;;;24.30;;
36931;SDS011;22847;42.654;23.370;2023-03-23T05:12:52;47.97;;;26.58;;
36931;SDS011;22847;42.654;23.370;2023-03-23T05:15:18;49.10;;;26.67;;
36931;SDS011;22847;42.654;23.370;2023-03-23T05:17:44;53.17;;;25.55;;
36931;SDS011;22847;42.654;23.370;2023-03-23T05:20:10;50.22;;;27.27;;
36931;SDS011;22847;42.654;23.370;2023-03-23T05:22:37;47.75;;;26.48;;
36931;SDS011;22847;42.654;23.370;2023-03-23T05:25:04;55.50;;;30.08;;
36931;SDS011;22847;42.654;23.370;2023-03-23T05:27:31;55.38;;;31.27;;
36931;SDS011;22847;42.654;23.370;2023-03-23T05:29:57;55.42;;;28.95;;
36931;SDS011;22847;42.654;23.370;2023-03-23T05:32:24;49.45;;;26.45;;
36931;SDS011;22847;42.654;23.370;2023-03-23T05:34:57;51.22;;;25.08;;
36931;SDS011;22847;42.654;23.370;2023-03-23T05:37:24;52.70;;;27.77;;
36931;SDS011;22847;42.654;23.370;2023-03-23T05:39:52;55.33;;;26.50;;
36931;SDS011;22847;42.654;23.370;2023-03-23T05:42:20;47.38;;;24.55;;
36931;SDS011;22847;42.654;23.370;2023-03-23T05:44:49;45.90;;;26.15;;
36931;SDS011;22847;42.654;23.370;2023-03-23T05:47:15;41.05;;;22.42;;
36931;SDS011;22847;42.654;23.370;2023-03-23T05:49:41;35.35;;;21.05;;
36931;SDS011;22847;42.654;23.370;2023-03-23T05:52:07;44.42;;;21.67;;
36931;SDS011;22847;42.654;23.370;2023-03-23T05:54:33;40.92;;;20.98;;
36931;SDS011;22847;42.654;23.370;2023-03-23T05:56:59;38.78;;;20.92;;
36931;SDS011;22847;42.654;23.370;2023-03-23T05:59:24;35.17;;;21.00;;
36931;SDS011;22847;42.654;23.370;2023-03-23T06:01:50;35.85;;;19.77;;
36931;SDS011;22847;42.654;23.370;2023-03-23T06:04:16;35.35;;;20.35;;
36931;SDS011;22847;42.654;23.370;2023-03-23T06:06:42;36.95;;;20.08;;
36931;SDS011;22847;42.654;23.370;2023-03-23T06:09:08;34.10;;;19.77;;
36931;SDS011;22847;42.654;23.370;2023-03-23T06:11:34;31.95;;;20.15;;
36931;SDS011;22847;42.654;23.370;2023-03-23T06:14:00;35.63;;;21.17;;
36931;SDS011;22847;42.654;23.370;2023-03-23T06:16:26;35.22;;;20.10;;
36931;SDS011;22847;42.654;23.370;2023-03-23T06:18:51;35.33;;;21.92;;
36931;SDS011;22847;42.654;23.370;2023-03-23T06:21:16;36.17;;;21.27;;
36931;SDS011;22847;42.654;23.370;2023-03-23T06:23:46;36.88;;;21.48;;
36931;SDS011;22847;42.654;23.370;2023-03-23T06:26:13;36.83;;;21.48;;
36931;SDS011;22847;42.654;23.370;2023-03-23T06:28:42;41.22;;;22.08;;
36931;SDS011;22847;42.654;23.370;2023-03-23T06:31:08;34.63;;;20.02;;
36931;SDS011;22847;42.654;23.370;2023-03-23T06:33:37;31.33;;;19.83;;
36931;SDS011;22847;42.654;23.370;2023-03-23T06:36:03;34.63;;;19.15;;
36931;SDS011;22847;42.654;23.370;2023-03-23T06:38:30;34.33;;;19.63;;
36931;SDS011;22847;42.654;23.370;2023-03-23T06:40:56;32.28;;;19.95;;
36931;SDS011;22847;42.654;23.370;2023-03-23T06:43:22;44.58;;;27.33;;
36931;SDS011;22847;42.654;23.370;2023-03-23T06:45:47;32.67;;;19.52;;
36931;SDS011;22847;42.654;23.370;2023-03-23T06:48:13;30.85;;;18.58;;
36931;SDS011;22847;42.654;23.370;2023-03-23T06:50:41;36.58;;;21.65;;
36931;SDS011;22847;42.654;23.370;2023-03-23T06:53:08;28.27;;;18.85;;
36931;SDS011;22847;42.654;23.370;2023-03-23T06:55:33;33.25;;;19.35;;
36931;SDS011;22847;42.654;23.370;2023-03-23T06:57:59;30.17;;;19.23;;
36931;SDS011;22847;42.654;23.370;2023-03-23T07:00:26;30.58;;;18.88;;
36931;SDS011;22847;42.654;23.370;2023-03-23T07:02:52;39.83;;;20.15;;
36931;SDS011;22847;42.654;23.370;2023-03-23T07:05:18;41.08;;;22.38;;
36931;SDS011;22847;42.654;23.370;2023-03-23T07:07:43;36.70;;;21.17;;
36931;SDS011;22847;42.654;23.370;2023-03-23T07:10:09;34.47;;;20.38;;
36931;SDS011;22847;42.654;23.370;2023-03-23T07:12:36;33.92;;;21.45;;
36931;SDS011;22847;42.654;23.370;2023-03-23T07:15:05;37.65;;;23.35;;
36931;SDS011;22847;42.654;23.370;2023-03-23T07:17:33;31.40;;;18.73;;
36931;SDS011;22847;42.654;23.370;2023-03-23T07:19:58;24.60;;;16.38;;
36931;SDS011;22847;42.654;23.370;2023-03-23T07:22:23;34.00;;;19.67;;
36931;SDS011;22847;42.654;23.370;2023-03-23T07:24:49;30.33;;;18.02;;
36931;SDS011;22847;42.654;23.370;2023-03-23T07:27:14;26.30;;;16.55;;
36931;SDS011;22847;42.654;23.370;2023-03-23T07:29:40;22.95;;;14.75;;
36931;SDS011;22847;42.654;23.370;2023-03-23T07:32:06;25.00;;;14.85;;
36931;SDS011;22847;42.654;23.370;2023-03-23T07:34:35;22.63;;;13.90;;
36931;SDS011;22847;42.654;23.370;2023-03-23T07:37:02;28.20;;;18.05;;
36931;SDS011;22847;42.654;23.370;2023-03-23T07:39:27;30.73;;;18.80;;
36931;SDS011;22847;42.654;23.370;2023-03-23T07:41:53;34.60;;;20.45;;
36931;SDS011;22847;42.654;23.370;2023-03-23T07:44:18;41.55;;;21.88;;
36931;SDS011;22847;42.654;23.370;2023-03-23T07:46:44;37.67;;;22.73;;
36931;SDS011;22847;42.654;23.370;2023-03-23T07:49:09;35.00;;;21.60;;
36931;SDS011;22847;42.654;23.370;2023-03-23T07:51:35;36.85;;;21.35;;
36931;SDS011;22847;42.654;23.370;2023-03-23T07:54:03;42.47;;;21.83;;
36931;SDS011;22847;42.654;23.370;2023-03-23T07:56:29;38.35;;;20.98;;
36931;SDS011;22847;42.654;23.370;2023-03-23T07:58:54;40.90;;;20.90;;
36931;SDS011;22847;42.654;23.370;2023-03-23T08:01:20;33.20;;;19.60;;
36931;SDS011;22847;42.654;23.370;2023-03-23T08:03:46;35.75;;;22.80;;
36931;SDS011;22847;42.654;23.370;2023-03-23T08:06:12;32.95;;;20.08;;
36931;SDS011;22847;42.654;23.370;2023-03-23T08:08:37;34.70;;;20.40;;
36931;SDS011;22847;42.654;23.370;2023-03-23T08:11:05;33.75;;;19.33;;
36931;SDS011;22847;42.654;23.370;2023-03-23T08:13:31;41.67;;;23.10;;
36931;SDS011;22847;42.654;23.370;2023-03-23T08:15:58;36.78;;;23.40;;
36931;SDS011;22847;42.654;23.370;2023-03-23T08:18:25;32.70;;;20.10;;
36931;SDS011;22847;42.654;23.370;2023-03-23T08:20:51;32.40;;;19.67;;
36931;SDS011;22847;42.654;23.370;2023-03-23T08:23:18;30.30;;;18.60;;
36931;SDS011;22847;42.654;23.370;2023-03-23T08:25:44;31.55;;;18.60;;
36931;SDS011;22847;42.654;23.370;2023-03-23T08:28:10;26.80;;;19.25;;
36931;SDS011;22847;42.654;23.370;2023-03-23T08:30:35;37.05;;;19.65;;
36931;SDS011;22847;42.654;23.370;2023-03-23T08:33:03;36.63;;;21.52;;
36931;SDS011;22847;42.654;23.370;2023-03-23T08:35:29;33.58;;;20.42;;
36931;SDS011;22847;42.654;23.370;2023-03-23T08:37:55;30.65;;;21.15;;
36931;SDS011;22847;42.654;23.370;2023-03-23T08:40:22;31.50;;;19.17;;
36931;SDS011;22847;42.654;23.370;2023-03-23T08:42:49;30.60;;;18.15;;
36931;SDS011;22847;42.654;23.370;2023-03-23T08:45:17;38.22;;;19.05;;
36931;SDS011;22847;42.654;23.370;2023-03-23T08:47:44;33.60;;;18.95;;
36931;SDS011;22847;42.654;23.370;2023-03-23T08:50:12;24.45;;;13.80;;
36931;SDS011;22847;42.654;23.370;2023-03-23T08:52:39;18.23;;;11.90;;
36931;SDS011;22847;42.654;23.370;2023-03-23T08:55:05;14.73;;;10.18;;
36931;SDS011;22847;42.654;23.370;2023-03-23T09:00:18;14.30;;;9.55;;
36931;SDS011;22847;42.654;23.370;2023-03-23T09:02:47;10.10;;;7.45;;
36931;SDS011;22847;42.654;23.370;2023-03-23T09:05:14;9.05;;;6.43;;
36931;SDS011;22847;42.654;23.370;2023-03-23T09:07:42;13.68;;;9.75;;
36931;SDS011;22847;42.654;23.370;2023-03-23T09:10:10;14.23;;;8.57;;
36931;SDS011;22847;42.654;23.370;2023-03-23T09:12:36;10.43;;;7.30;;
36931;SDS011;22847;42.654;23.370;2023-03-23T09:15:03;10.70;;;7.72;;
36931;SDS011;22847;42.654;23.370;2023-03-23T09:17:33;12.10;;;7.88;;
36931;SDS011;22847;42.654;23.370;2023-03-23T09:20:00;9.35;;;6.57;;
36931;SDS011;22847;42.654;23.370;2023-03-23T09:22:25;12.18;;;8.93;;
36931;SDS011;22847;42.654;23.370;2023-03-23T09:24:51;14.55;;;9.32;;
36931;SDS011;22847;42.654;23.370;2023-03-23T09:27:17;13.77;;;8.65;;
36931;SDS011;22847;42.654;23.370;2023-03-23T09:29:42;15.50;;;8.75;;
36931;SDS011;22847;42.654;23.370;2023-03-23T09:32:09;13.52;;;10.55;;
36931;SDS011;22847;42.654;23.370;2023-03-23T09:34:35;17.17;;;9.55;;
36931;SDS011;22847;42.654;23.370;2023-03-23T09:37:03;18.63;;;9.88;;
36931;SDS011;22847;42.654;23.370;2023-03-23T09:39:29;13.50;;;8.95;;
36931;SDS011;22847;42.654;23.370;2023-03-23T09:47:35;12.15;;;8.68;;
36931;SDS011;22847;42.654;23.370;2023-03-23T09:50:12;13.40;;;8.63;;
36931;SDS011;22847;42.654;23.370;2023-03-23T09:52:53;12.48;;;8.15;;
36931;SDS011;22847;42.654;23.370;2023-03-23T09:55:21;11.93;;;8.35;;
36931;SDS011;22847;42.654;23.370;2023-03-23T09:57:49;12.48;;;8.40;;
36931;SDS011;22847;42.654;23.370;2023-03-23T10:00:29;12.38;;;8.68;;
36931;SDS011;22847;42.654;23.370;2023-03-23T10:03:13;14.85;;;8.50;;
36931;SDS011;22847;42.654;23.370;2023-03-23T10:05:42;16.85;;;12.55;;
36931;SDS011;22847;42.654;23.370;2023-03-23T10:08:09;20.17;;;12.85;;
36931;SDS011;22847;42.654;23.370;2023-03-23T10:17:16;9.95;;;7.53;;
36931;SDS011;22847;42.654;23.370;2023-03-23T10:19:33;9.20;;;6.40;;
36931;SDS011;22847;42.654;23.370;2023-03-23T10:22:09;10.45;;;6.80;;
36931;SDS011;22847;42.654;23.370;2023-03-23T10:24:36;10.15;;;6.32;;
36931;SDS011;22847;42.654;23.370;2023-03-23T10:30:53;9.25;;;6.35;;
36931;SDS011;22847;42.654;23.370;2023-03-23T10:33:00;13.20;;;7.45;;
36931;SDS011;22847;42.654;23.370;2023-03-23T10:35:34;8.25;;;6.63;;
36931;SDS011;22847;42.654;23.370;2023-03-23T10:38:06;14.68;;;7.75;;
36931;SDS011;22847;42.654;23.370;2023-03-23T10:40:43;10.55;;;6.90;;
36931;SDS011;22847;42.654;23.370;2023-03-23T10:43:21;15.65;;;6.95;;
36931;SDS011;22847;42.654;23.370;2023-03-23T10:45:50;9.85;;;7.28;;
36931;SDS011;22847;42.654;23.370;2023-03-23T10:48:51;9.13;;;7.05;;
36931;SDS011;22847;42.654;23.370;2023-03-23T10:51:19;9.52;;;6.78;;
36931;SDS011;22847;42.654;23.370;2023-03-23T10:53:55;12.30;;;8.35;;
36931;SDS011;22847;42.654;23.370;2023-03-23T10:56:26;11.73;;;7.78;;
36931;SDS011;22847;42.654;23.370;2023-03-23T10:58:54;9.88;;;7.00;;
36931;SDS011;22847;42.654;23.370;2023-03-23T11:01:28;12.60;;;7.53;;
36931;SDS011;22847;42.654;23.370;2023-03-23T11:03:56;14.30;;;7.70;;
36931;SDS011;22847;42.654;23.370;2023-03-23T11:06:23;16.67;;;7.15;;
36931;SDS011;22847;42.654;23.370;2023-03-23T11:11:42;11.75;;;7.53;;
36931;SDS011;22847;42.654;23.370;2023-03-23T11:14:19;13.30;;;8.35;;
36931;SDS011;22847;42.654;23.370;2023-03-23T11:16:50;10.60;;;7.50;;
36931;SDS011;22847;42.654;23.370;2023-03-23T11:19:20;11.45;;;7.45;;
36931;SDS011;22847;42.654;23.370;2023-03-23T11:21:52;11.02;;;7.45;;
36931;SDS011;22847;42.654;23.370;2023-03-23T11:24:22;12.55;;;8.13;;
36931;SDS011;22847;42.654;23.370;2023-03-23T11:26:50;12.25;;;7.35;;
36931;SDS011;22847;42.654;23.370;2023-03-23T11:29:22;10.82;;;7.70;;
36931;SDS011;22847;42.654;23.370;2023-03-23T11:32:09;10.82;;;7.20;;
36931;SDS011;22847;42.654;23.370;2023-03-23T11:34:41;11.23;;;6.82;;
36931;SDS011;22847;42.654;23.370;2023-03-23T11:37:12;11.20;;;7.20;;
36931;SDS011;22847;42.654;23.370;2023-03-23T11:42:35;10.32;;;7.40;;
36931;SDS011;22847;42.654;23.370;2023-03-23T11:47:49;12.93;;;9.00;;
36931;SDS011;22847;42.654;23.370;2023-03-23T11:50:30;13.15;;;7.90;;
36931;SDS011;22847;42.654;23.370;2023-03-23T11:53:06;12.20;;;7.13;;
36931;SDS011;22847;42.654;23.370;2023-03-23T11:55:54;13.45;;;8.18;;
36931;SDS011;22847;42.654;23.370;2023-03-23T11:58:21;11.30;;;7.38;;
36931;SDS011;22847;42.654;23.370;2023-03-23T12:01:11;13.85;;;6.95;;
36931;SDS011;22847;42.654;23.370;2023-03-23T12:04:13;15.32;;;7.53;;
36931;SDS011;22847;42.654;23.370;2023-03-23T12:20:30;10.10;;;6.90;;
36931;SDS011;22847;42.654;23.370;2023-03-23T12:25:39;11.68;;;7.25;;
36931;SDS011;22847;42.654;23.370;2023-03-23T12:31:28;10.70;;;7.38;;
36931;SDS011;22847;42.654;23.370;2023-03-23T12:42:09;8.98;;;6.90;;
36931;SDS011;22847;42.654;23.370;2023-03-23T12:44:47;9.85;;;6.57;;
36931;SDS011;22847;42.654;23.370;2023-03-23T12:50:00;10.43;;;6.80;;
36931;SDS011;22847;42.654;23.370;2023-03-23T12:52:47;9.93;;;7.18;;
36931;SDS011;22847;42.654;23.370;2023-03-23T12:57:54;10.18;;;6.70;;
36931;SDS011;22847;42.654;23.370;2023-03-23T13:03:02;7.90;;;5.80;;
36931;SDS011;22847;42.654;23.370;2023-03-23T13:08:25;14.35;;;8.38;;
36931;SDS011;22847;42.654;23.370;2023-03-23T13:10:58;12.25;;;7.53;;
36931;SDS011;22847;42.654;23.370;2023-03-23T13:24:38;11.43;;;7.00;;
36931;SDS011;22847;42.654;23.370;2023-03-23T13:27:08;9.05;;;7.10;;
36931;SDS011;22847;42.654;23.370;2023-03-23T13:29:36;9.52;;;7.25;;
36931;SDS011;22847;42.654;23.370;2023-03-23T13:32:15;12.00;;;7.13;;
36931;SDS011;22847;42.654;23.370;2023-03-23T13:34:42;9.90;;;6.32;;
36931;SDS011;22847;42.654;23.370;2023-03-23T13:37:26;13.85;;;6.75;;
36931;SDS011;22847;42.654;23.370;2023-03-23T13:39:53;16.33;;;11.27;;
36931;SDS011;22847;42.654;23.370;2023-03-23T13:42:30;29.55;;;19.33;;
36931;SDS011;22847;42.654;23.370;2023-03-23T13:58:48;16.08;;;7.00;;
36931;SDS011;22847;42.654;23.370;2023-03-23T14:01:18;12.32;;;6.05;;
36931;SDS011;22847;42.654;23.370;2023-03-23T14:03:58;10.38;;;6.35;;
36931;SDS011;22847;42.654;23.370;2023-03-23T14:06:25;8.68;;;6.65;;
36931;SDS011;22847;42.654;23.370;2023-03-23T14:09:04;13.95;;;6.32;;
36931;SDS011;22847;42.654;23.370;2023-03-23T14:11:57;9.95;;;6.85;;
36931;SDS011;22847;42.654;23.370;2023-03-23T14:14:26;9.57;;;5.90;;
36931;SDS011;22847;42.654;23.370;2023-03-23T14:17:06;10.25;;;6.35;;
36931;SDS011;22847;42.654;23.370;2023-03-23T14:19:37;8.98;;;6.32;;
36931;SDS011;22847;42.654;23.370;2023-03-23T14:22:04;11.50;;;6.63;;
36931;SDS011;22847;42.654;23.370;2023-03-23T14:24:41;12.70;;;6.65;;
36931;SDS011;22847;42.654;23.370;2023-03-23T14:29:46;11.20;;;6.80;;
36931;SDS011;22847;42.654;23.370;2023-03-23T14:32:23;10.68;;;7.75;;
36931;SDS011;22847;42.654;23.370;2023-03-23T14:34:51;10.40;;;6.82;;
36931;SDS011;22847;42.654;23.370;2023-03-23T14:37:17;12.27;;;6.80;;
36931;SDS011;22847;42.654;23.370;2023-03-23T14:39:47;8.85;;;6.45;;
36931;SDS011;22847;42.654;23.370;2023-03-23T14:42:15;10.13;;;6.38;;
36931;SDS011;22847;42.654;23.370;2023-03-23T14:44:46;10.13;;;7.10;;
36931;SDS011;22847;42.654;23.370;2023-03-23T14:47:19;10.68;;;6.60;;
36931;SDS011;22847;42.654;23.370;2023-03-23T14:49:47;10.77;;;6.50;;
36931;SDS011;22847;42.654;23.370;2023-03-23T14:52:18;11.88;;;7.18;;
36931;SDS011;22847;42.654;23.370;2023-03-23T14:54:47;8.85;;;6.13;;
36931;SDS011;22847;42.654;23.370;2023-03-23T14:59:41;11.15;;;6.95;;
36931;SDS011;22847;42.654;23.370;2023-03-23T15:02:10;10.25;;;6.55;;
36931;SDS011;22847;42.654;23.370;2023-03-23T15:04:38;10.77;;;7.03;;
36931;SDS011;22847;42.654;23.370;2023-03-23T15:07:04;8.57;;;5.93;;
36931;SDS011;22847;42.654;23.370;2023-03-23T15:09:30;11.05;;;7.15;;
36931;SDS011;22847;42.654;23.370;2023-03-23T15:11:57;9.85;;;6.90;;
36931;SDS011;22847;42.654;23.370;2023-03-23T15:14:30;13.48;;;6.75;;
36931;SDS011;22847;42.654;23.370;2023-03-23T15:16:58;9.32;;;6.60;;
36931;SDS011;22847;42.654;23.370;2023-03-23T15:19:43;10.93;;;7.43;;
36931;SDS011;22847;42.654;23.370;2023-03-23T15:24:49;11.45;;;7.30;;
36931;SDS011;22847;42.654;23.370;2023-03-23T15:27:23;10.57;;;6.88;;
36931;SDS011;22847;42.654;23.370;2023-03-23T15:32:21;9.38;;;6.30;;
36931;SDS011;22847;42.654;23.370;2023-03-23T15:34:48;12.02;;;7.00;;
36931;SDS011;22847;42.654;23.370;2023-03-23T15:37:20;8.23;;;6.43;;
36931;SDS011;22847;42.654;23.370;2023-03-23T15:39:52;15.18;;;7.20;;
36931;SDS011;22847;42.654;23.370;2023-03-23T15:42:21;10.90;;;6.32;;
36931;SDS011;22847;42.654;23.370;2023-03-23T15:47:34;10.60;;;6.50;;
36931;SDS011;22847;42.654;23.370;2023-03-23T15:50:12;11.57;;;6.50;;
36931;SDS011;22847;42.654;23.370;2023-03-23T15:52:40;11.18;;;6.68;;
36931;SDS011;22847;42.654;23.370;2023-03-23T15:57:44;12.90;;;6.28;;
36931;SDS011;22847;42.654;23.370;2023-03-23T16:00:10;16.48;;;6.75;;
36931;SDS011;22847;42.654;23.370;2023-03-23T16:02:36;12.23;;;6.90;;
36931;SDS011;22847;42.654;23.370;2023-03-23T16:05:02;11.10;;;5.80;;
36931;SDS011;22847;42.654;23.370;2023-03-23T16:07:27;10.55;;;6.50;;
36931;SDS011;22847;42.654;23.370;2023-03-23T16:09:53;11.48;;;5.80;;
36931;SDS011;22847;42.654;23.370;2023-03-23T16:12:18;11.05;;;6.30;;
36931;SDS011;22847;42.654;23.370;2023-03-23T16:14:43;14.07;;;7.13;;
36931;SDS011;22847;42.654;23.370;2023-03-23T16:17:10;15.00;;;6.25;;
36931;SDS011;22847;42.654;23.370;2023-03-23T16:19:43;10.75;;;6.55;;
36931;SDS011;22847;42.654;23.370;2023-03-23T16:22:08;12.50;;;6.60;;
36931;SDS011;22847;42.654;23.370;2023-03-23T16:24:34;15.77;;;6.30;;
36931;SDS011;22847;42.654;23.370;2023-03-23T16:26:59;9.80;;;6.07;;
36931;SDS011;22847;42.654;23.370;2023-03-23T16:29:25;14.88;;;10.18;;
36931;SDS011;22847;42.654;23.370;2023-03-23T16:31:50;11.80;;;6.55;;
36931;SDS011;22847;42.654;23.370;2023-03-23T16:34:15;9.25;;;5.93;;
36931;SDS011;22847;42.654;23.370;2023-03-23T16:36:41;10.98;;;6.20;;